RORK(METAR)
10/21 05:00
METAR RORK 202000Z AUTO 06022KT 9999 FEW019 SCT040 26/22 Q1013 RMK
A2994=
戻る
トップページへ戻る
IMOC Co,.Ltd.